Denton, Georgia
Current Conditions -  °F | °C
As of 5:15 PM on Sunday 25 Jan 2015 (Local Time) from KAZE Reporting Station
Clear Clear  
Wind Chill: 60°   Ceiling: Unl
Heat Index: 60°   Visibility: 10mi
Dew Point: 34°   Wind: 7mph
Humidity: 38%   Direction: 210°SSW
Pressure: 29.86"   Gusts: NA
Location:  31.72°N, 82.69°W
Report Text: KAZE 252215Z AUTO 21006KT 10SM CLR 16/01 A2986 RMK AO2 T01550010
Loading
Personal Weather Stations






























Interactive Weather Map New forecast layout! Learn more

10-Day Weather Forecast

Advertisements
Track Severe Weather on mobile